Date,TemperatureHighF,TemperatureAvgF,TemperatureLowF,DewpointHighF,DewpointAvgF,DewpointLowF,HumidityHigh,HumidityAvg,HumidityLow,PressureMaxIn,PressureMinIn,WindSpeedMaxMPH,WindSpeedAvgMPH,GustSpeedMaxMPH,PrecipitationSumIn
2014-1-1,44,39,34,42,39,33,100,98,91,30.43,30.26,5,0,5,0.00
2014-1-2,49,44,40,44,42,39,100,93,75,30.27,29.92,26,1,26,0.73
2014-1-3,44,39,33,42,36,33,99,92,75,30.38,30.01,7,1,9,0.05
2014-1-4,45,36,30,38,33,29,99,90,67,30.49,30.38,7,0,7,0.00
2014-1-5,44,34,26,39,31,25,99,91,72,30.52,30.34,4,0,4,0.01
2014-1-6,42,36,29,36,31,28,98,84,59,30.34,30.15,9,1,9,0.00
2014-1-7,45,42,38,44,41,31,99,97,68,30.16,30.02,8,1,8,0.51
2014-1-8,47,45,42,46,44,41,100,97,90,30.03,29.70,23,3,23,0.32
2014-1-9,46,43,40,44,40,38,99,91,82,30.01,29.74,27,4,27,0.08
2014-1-10,53,46,45,48,43,41,91,88,82,30.11,29.57,31,6,31,0.07
2014-1-11,57,46,41,49,43,39,95,88,68,29.80,29.38,38,8,38,1.10
2014-1-12,49,45,38,47,42,37,97,91,83,30.32,29.80,29,5,29,0.17
2014-1-13,50,49,48,47,46,44,92,90,87,30.64,30.32,25,5,26,0.00
2014-1-14,50,48,45,47,46,44,98,93,88,30.68,30.59,9,0,9,0.00
2014-1-15,50,43,38,45,41,38,99,94,82,30.64,30.52,6,0,6,0.00
2014-1-16,39,36,34,39,36,34,99,99,99,30.53,30.38,5,0,5,0.00
2014-1-17,38,34,31,38,34,31,100,99,99,30.38,30.21,6,0,6,0.00
2014-1-18,46,37,30,44,36,30,100,97,85,30.30,30.18,8,0,8,0.01
2014-1-19,39,35,32,39,35,32,100,99,98,30.34,30.18,8,0,8,0.00
2014-1-20,51,38,32,43,36,32,100,93,71,30.37,30.28,6,0,6,0.00
2014-1-21,50,40,31,44,37,30,99,91,77,30.37,30.23,11,1,15,0.00
2014-1-22,45,42,39,44,41,38,99,96,88,30.46,30.36,8,0,9,0.02
2014-1-23,49,40,34,43,38,34,100,93,74,30.49,30.40,10,1,10,0.00
2014-1-24,60,39,32,41,34,31,99,85,43,30.44,30.30,6,0,7,0.00
2014-1-25,58,44,33,39,34,28,98,70,43,30.40,30.28,7,0,7,0.00
2014-1-26,54,40,31,41,34,30,97,79,54,30.28,30.11,6,0,6,0.00
2014-1-27,43,35,29,39,34,28,99,94,81,30.24,30.13,6,0,6,0.00
2014-1-28,49,44,40,42,40,37,97,86,76,30.25,29.90,12,1,12,0.29
2014-1-29,49,44,41,48,43,40,99,98,94,29.90,29.64,13,1,13,0.99
2014-1-30,44,41,39,42,39,37,99,90,81,29.94,29.82,23,4,23,0.01
2014-1-31,42,38,36,39,38,35,99,97,89,30.17,29.94,7,1,7,0.13
2014-2-1,41,38,33,40,37,32,99,98,92,30.20,30.09,4,0,4,0.07
2014-2-2,46,36,27,36,31,27,99,86,56,30.10,29.97,9,1,9,0.01
2014-2-3,39,33,27,30,25,19,91,73,51,30.22,30.03,15,1,15,0.00
2014-2-4,33,28,25,25,16,6,89,63,44,30.45,30.22,20,2,20,0.00
2014-2-5,27,22,17,7,1,-3,56,40,31,30.51,30.35,22,4,22,0.00
2014-2-6,26,22,17,12,3,-1,60,43,32,30.35,29.82,20,2,20,0.00
2014-2-7,38,28,22,20,16,11,72,60,41,29.97,29.79,14,1,14,0.00
2014-2-8,39,31,25,27,20,15,95,65,42,30.05,29.85,25,2,25,0.00
2014-2-9,36,33,28,33,30,25,94,88,79,30.11,29.96,9,1,12,0.09
2014-2-10,48,41,34,46,39,31,99,92,81,30.08,30.02,24,4,24,0.57
2014-2-11,51,46,42,44,42,41,97,87,71,30.16,29.60,29,3,29,0.44
2014-2-12,52,48,42,49,42,36,97,79,58,29.91,29.48,39,5,39,0.12
2014-2-13,53,47,41,45,40,31,96,77,55,30.08,29.74,30,5,30,0.00
2014-2-14,50,46,41,46,41,29,94,83,48,29.97,29.60,29,5,29,0.26
2014-2-15,49,41,38,46,37,31,95,85,53,29.97,29.28,35,3,35,0.58
2014-2-16,46,41,36,41,36,32,96,83,59,29.99,29.67,38,7,38,0.81
2014-2-17,45,39,36,40,37,35,96,94,76,29.95,29.72,20,4,25,0.34
2014-2-18,46,42,39,43,39,35,96,88,77,29.98,29.60,11,5,34,0.41
2014-2-19,45,40,37,37,36,35,93,85,69,30.15,29.86,7,4,26,0.00
2014-2-20,48,43,38,40,38,36,93,84,67,30.23,30.02,9,4,26,0.03
2014-2-21,40,38,35,38,36,34,98,94,87,30.31,30.22,4,1,13,0.20
2014-2-22,38,35,31,36,34,30,99,97,91,30.25,30.06,2,1,9,0.18
2014-2-23,40,38,36,39,37,35,99,97,92,30.06,29.97,2,0,10,0.28
2014-2-24,40,38,36,39,38,36,99,97,94,30.13,30.04,16,1,16,0.43
2014-2-25,52,44,37,39,35,32,97,71,52,30.14,30.00,22,4,22,0.01
2014-2-26,60,50,45,40,33,30,63,53,36,30.00,29.71,26,3,26,0.00
2014-2-27,53,47,40,42,38,32,87,72,59,29.77,29.64,6,1,9,0.00
2014-2-28,57,47,40,44,38,28,97,73,57,29.76,29.52,10,2,16,0.00
2014-3-1,41,38,34,33,28,26,80,70,60,29.71,29.55,19,2,19,0.01
2014-3-2,47,37,32,46,35,29,99,94,78,29.75,29.57,24,3,24,0.67
2014-3-3,56,48,43,51,45,42,99,90,70,29.91,29.69,23,4,23,0.25
2014-3-4,51,48,43,49,46,43,98,95,89,29.97,29.83,6,2,17,0.38
2014-3-5,57,51,46,54,50,46,99,96,86,29.83,29.45,32,2,32,1.55
2014-3-6,54,50,48,48,46,44,94,86,73,30.08,29.51,28,6,35,0.19
2014-3-7,59,50,44,46,44,40,89,80,55,30.29,30.08,23,3,23,0.00
2014-3-8,54,48,42,52,44,38,98,87,63,30.14,29.75,26,2,26,1.16
2014-3-9,53,50,49,52,49,48,96,94,91,30.02,29.83,23,3,26,0.04
2014-3-10,49,45,42,46,43,40,98,94,83,30.48,29.95,11,1,11,0.49
2014-3-11,58,46,37,44,40,35,99,82,44,30.61,30.48,8,1,8,0.00
2014-3-12,62,52,35,43,37,28,96,60,30,30.37,30.17,7,1,10,0.00
2014-3-13,58,47,36,45,40,35,98,77,54,30.19,30.03,10,1,10,0.04
2014-3-14,57,50,47,48,45,41,95,83,59,30.24,29.92,23,5,23,0.16
2014-3-15,61,52,41,50,44,36,96,74,49,30.35,30.20,17,2,17,0.24
2014-3-16,50,44,37,49,43,37,98,96,91,30.23,30.00,19,2,19,1.56
2014-3-17,48,41,37,42,37,33,99,87,61,30.36,30.01,9,1,9,0.09
2014-3-18,49,43,35,44,39,34,96,87,74,30.37,30.19,8,0,8,0.00
2014-3-19,50,42,34,43,40,33,98,92,72,30.23,30.02,24,3,24,0.31
2014-3-20,51,40,33,40,34,28,98,80,50,30.39,30.23,10,1,10,0.03
2014-3-21,51,40,30,36,32,27,97,76,41,30.39,30.30,12,1,12,0.00
2014-3-22,53,42,31,38,32,28,95,72,41,30.34,30.22,8,0,8,0.00
2014-3-23,55,45,39,39,36,34,89,72,49,30.35,30.26,11,1,11,0.00
2014-3-24,70,53,36,42,35,30,94,58,24,30.27,29.91,16,2,16,0.00
2014-3-25,56,51,43,50,41,30,91,71,40,29.91,29.54,34,3,34,0.30
2014-3-26,53,45,40,45,42,38,96,88,64,29.65,29.53,13,1,13,0.08
2014-3-27,53,46,42,46,43,42,98,89,69,29.91,29.59,13,2,13,0.06
2014-3-28,51,46,43,48,44,40,96,92,85,29.91,29.71,23,2,23,0.69
2014-3-29,50,46,44,45,43,41,97,89,77,29.84,29.72,21,3,21,0.73
2014-3-30,54,46,40,42,40,37,94,81,56,30.01,29.84,14,4,18,0.00
2014-3-31,62,48,36,42,36,29,95,66,31,30.00,29.73,19,2,19,0.00
2014-4-1,59,49,41,42,39,34,92,71,39,29.92,29.73,14,1,14,0.00
2014-4-2,58,48,41,42,40,33,95,75,40,30.03,29.92,14,2,14,0.00
2014-4-3,56,47,40,44,40,37,92,79,50,30.02,29.91,6,2,16,0.09
2014-4-4,55,48,43,42,40,38,91,77,53,29.99,29.93,5,3,18,0.00
2014-4-5,51,47,43,48,45,42,98,93,85,30.11,29.99,6,2,22,0.19
2014-4-6,55,50,45,49,46,43,94,85,71,30.31,30.11,2,1,10,0.00
2014-4-7,74,60,48,50,48,46,94,69,41,30.33,30.09,4,1,12,0.00
2014-4-8,60,53,44,51,48,43,97,84,63,30.17,30.07,5,3,14,0.52
2014-4-9,58,48,41,44,40,35,98,77,43,30.30,30.18,3,1,10,0.03
2014-4-10,58,48,39,41,39,37,96,72,49,30.30,30.18,3,1,13,0.00
2014-4-11,59,49,38,46,41,36,92,76,57,30.19,30.05,3,1,10,0.00
2014-4-12,60,50,42,45,42,39,90,74,46,30.19,30.08,4,1,15,0.00
2014-4-13,71,56,39,44,34,25,96,50,21,30.32,30.18,9,1,14,0.00
2014-4-14,69,56,42,43,34,27,75,47,23,30.18,30.05,17,2,17,0.00
2014-4-15,58,49,43,44,40,35,95,70,43,30.22,30.09,6,2,15,0.07
2014-4-16,50,48,46,49,46,44,98,94,86,30.09,29.95,12,2,12,0.57
2014-4-17,51,49,42,50,47,40,98,95,90,29.95,29.74,25,2,25,1.36
2014-4-18,55,47,40,42,40,36,99,78,51,30.14,29.92,9,2,11,0.59
2014-4-19,54,46,41,48,41,34,95,82,60,30.19,29.78,24,3,24,0.28
2014-4-20,62,51,43,43,39,33,92,67,38,30.31,30.15,14,2,14,0.00
2014-4-21,63,51,43,46,43,40,96,76,50,30.15,29.85,11,1,11,0.11
2014-4-22,55,45,38,44,40,37,97,85,55,29.91,29.84,20,2,20,0.61
2014-4-23,53,46,42,46,42,39,95,85,67,29.92,29.67,17,3,17,0.13
2014-4-24,55,50,43,48,45,40,95,83,60,29.92,29.61,27,4,27,0.33
2014-4-25,58,46,40,42,40,35,97,82,42,29.92,29.83,13,1,13,0.00
2014-4-26,58,48,42,42,38,30,93,69,35,29.86,29.66,5,2,17,0.14
2014-4-27,51,46,42,42,41,40,91,82,67,30.12,29.66,9,5,21,0.01
2014-4-28,62,50,41,42,39,35,91,67,37,30.38,30.13,4,1,13,0.00
2014-4-29,76,60,45,40,35,27,82,46,18,30.50,30.38,16,2,18,0.00
2014-4-30,85,71,59,47,36,31,44,29,16,30.41,30.15,4,2,14,0.00
2014-5-1,88,74,62,48,40,33,38,30,15,30.15,29.94,4,2,11,0.00
2014-5-2,70,63,54,54,47,38,88,58,31,30.04,29.90,6,3,17,0.01
2014-5-3,58,52,48,51,47,43,98,85,62,29.94,29.75,18,2,18,0.99
2014-5-4,57,50,47,51,48,45,98,92,76,29.88,29.75,19,2,19,0.66
2014-5-5,59,51,47,52,48,46,98,91,67,30.04,29.88,14,2,14,0.05
2014-5-6,60,50,47,49,47,44,98,89,59,30.06,30.00,8,1,12,0.08
2014-5-7,66,54,44,47,44,42,94,72,45,30.06,29.88,4,1,12,0.00
2014-5-8,56,51,47,52,48,43,96,90,69,29.90,29.65,22,3,22,0.44
2014-5-9,56,50,45,47,44,42,92,82,63,30.02,29.75,21,4,21,0.01
2014-5-10,57,49,43,49,45,41,96,86,71,30.29,30.02,7,1,8,0.10
2014-5-11,66,54,42,49,46,41,98,77,51,30.36,30.27,12,1,12,0.00
2014-5-12,79,63,47,48,39,27,93,49,16,30.37,30.27,16,2,16,0.00
2014-5-13,82,67,51,46,41,35,72,40,23,30.37,30.29,13,1,13,0.00
2014-5-14,86,70,54,53,50,46,81,52,30,30.33,30.09,11,1,11,0.00
2014-5-15,84,70,57,56,51,34,84,55,30,30.09,29.94,20,2,20,0.00
2014-5-16,68,59,53,50,48,45,83,67,47,30.12,30.04,17,3,17,0.00
2014-5-17,68,59,54,49,47,41,82,67,43,30.08,29.87,15,2,15,0.00
2014-5-18,68,56,49,53,49,45,94,79,47,29.92,29.81,19,2,19,0.06
2014-5-19,69,58,50,51,49,44,95,73,44,30.08,29.92,12,1,12,0.00
2014-5-20,72,59,48,54,50,46,95,72,46,30.15,30.07,13,1,13,0.00
2014-5-21,68,58,50,52,49,46,87,73,53,30.19,30.14,9,1,9,0.00
2014-5-22,77,64,51,57,53,48,93,69,47,30.16,30.01,13,1,13,0.00
2014-5-23,68,60,56,60,56,51,94,86,68,30.14,29.96,17,2,17,0.18
2014-5-24,66,58,52,53,51,49,94,78,58,30.19,30.13,12,1,12,0.00
2014-5-25,61,54,50,53,50,48,97,86,64,30.15,30.00,9,0,9,0.30
2014-5-26,64,57,51,53,48,43,98,75,50,30.18,30.00,7,3,19,0.01
2014-5-27,66,56,48,49,44,40,90,67,39,30.18,30.08,3,1,11,0.00
2014-5-28,64,55,50,51,48,43,95,78,45,30.16,30.09,4,2,16,0.04
2014-5-29,62,55,50,49,46,42,87,74,50,30.24,30.17,5,2,15,0.00
2014-5-30,69,57,44,50,47,43,97,71,46,30.19,29.99,3,1,15,0.00
2014-5-31,73,62,48,51,48,45,91,63,39,30.08,30.02,4,1,14,0.00
2014-6-1,72,60,51,53,50,48,91,72,49,30.12,29.99,4,1,10,0.00
2014-6-2,74,63,51,54,52,50,94,69,44,29.99,29.85,4,2,12,0.00
2014-6-3,62,59,51,53,51,47,87,76,65,30.10,29.89,7,1,14,0.00
2014-6-4,68,58,52,53,51,49,90,77,58,30.15,30.09,10,1,10,0.00
2014-6-5,73,60,48,52,47,42,94,65,35,30.18,30.07,11,1,11,0.00
2014-6-6,75,62,48,50,46,40,92,59,31,30.14,30.08,12,2,12,0.00
2014-6-7,75,63,52,54,51,47,90,68,42,30.19,30.11,14,2,14,0.00
2014-6-8,75,62,52,57,54,50,94,75,48,30.22,30.08,13,2,13,0.00
2014-6-9,69,61,53,54,49,46,95,67,50,30.16,30.08,12,2,12,0.01
2014-6-10,64,56,47,51,48,44,89,74,61,30.13,30.09,3,1,9,0.00
2014-6-11,74,62,47,52,48,45,92,65,37,30.09,29.84,4,1,15,0.00
2014-6-12,66,59,52,54,51,48,89,76,57,29.88,29.81,19,2,19,0.00
2014-6-13,55,53,51,53,50,46,96,90,72,30.12,29.87,17,2,17,0.47
2014-6-14,62,55,52,52,49,46,97,81,66,30.13,29.99,9,2,17,0.23
2014-6-15,62,52,48,55,50,47,97,92,69,29.99,29.84,16,1,16,0.56
2014-6-16,63,53,46,53,48,45,97,84,53,29.98,29.88,3,1,8,0.20
2014-6-17,61,54,48,54,50,47,96,87,75,30.13,29.99,3,1,12,0.24
2014-6-18,65,58,51,51,49,47,86,74,59,30.13,30.04,4,2,13,0.00
2014-6-19,75,62,52,55,52,49,92,71,44,30.03,29.95,5,2,17,0.00
2014-6-20,65,57,49,55,48,44,95,73,54,30.17,30.03,3,1,11,0.05
2014-6-21,72,60,47,49,45,41,85,60,37,30.16,30.03,3,1,12,0.00
2014-6-22,77,63,48,52,48,44,92,61,35,30.11,30.00,4,1,13,0.00
2014-6-23,77,66,54,56,50,47,81,60,39,30.08,29.99,5,1,13,0.00
2014-6-24,75,69,57,57,55,52,90,63,45,30.12,30.03,11,1,11,0.00
2014-6-25,79,67,55,60,56,52,95,70,42,30.03,29.78,11,1,11,0.00
2014-6-26,70,63,58,60,58,50,97,84,67,29.84,29.77,17,2,17,0.13
2014-6-27,69,60,55,59,55,50,95,83,65,29.91,29.74,16,3,16,0.09
2014-6-28,68,60,55,59,55,52,96,84,65,30.05,29.90,18,3,18,0.10
2014-6-29,66,60,54,57,54,50,96,79,64,30.24,30.05,12,2,12,0.00
2014-6-30,78,64,50,58,54,49,98,74,44,30.25,30.03,12,1,12,0.00
2014-7-1,96,75,55,62,56,53,95,58,27,30.03,29.72,11,1,11,0.00
2014-7-2,79,70,59,60,56,48,82,63,35,30.02,29.76,16,2,17,0.00
2014-7-3,69,62,56,56,53,47,93,74,55,30.11,30.02,10,1,10,0.00
2014-7-4,74,63,52,54,50,47,86,65,46,30.08,30.00,13,1,13,0.00
2014-7-5,75,65,54,58,54,46,93,69,39,30.14,30.04,12,1,12,0.00
2014-7-6,83,70,60,63,59,55,88,68,47,30.16,30.10,13,2,13,0.00
2014-7-7,81,68,59,66,61,58,97,82,58,30.14,30.02,9,1,9,0.00
2014-7-8,85,72,58,62,59,55,97,67,39,30.06,29.96,13,1,13,0.00
2014-7-9,82,69,56,59,56,53,89,64,42,30.02,29.92,11,1,11,0.00
2014-7-10,83,70,55,60,55,49,95,64,37,29.97,29.88,13,1,13,0.00
2014-7-11,89,74,56,61,56,53,91,59,32,30.00,29.91,13,1,13,0.00
2014-7-12,91,76,62,62,60,56,91,60,36,30.09,30.00,11,1,11,0.00
2014-7-13,88,75,61,67,59,50,79,59,42,30.10,30.00,12,1,12,0.01
2014-7-14,85,72,63,63,60,58,87,68,40,30.12,30.04,12,2,12,0.00
2014-7-15,88,73,60,64,60,54,95,66,36,30.10,29.97,9,1,9,0.00
2014-7-16,90,75,59,60,57,52,92,57,30,30.01,29.89,12,2,12,0.00
2014-7-17,78,67,57,59,55,53,91,68,45,30.03,29.93,17,3,17,0.00
2014-7-18,75,66,55,58,54,50,88,68,51,30.09,30.01,13,2,13,0.00
2014-7-19,76,66,60,64,60,56,90,80,65,30.07,29.93,17,4,25,0.00
2014-7-20,64,59,55,58,54,52,93,86,68,29.99,29.94,11,1,11,0.01
2014-7-21,75,64,55,54,52,50,88,66,44,30.05,29.97,12,1,12,0.00
2014-7-22,72,63,55,60,56,51,92,79,64,30.09,30.00,8,0,8,0.02
2014-7-23,63,59,55,61,58,53,98,95,88,30.08,29.94,16,1,16,1.25
2014-7-24,61,57,54,59,54,51,96,92,85,30.23,30.07,11,1,12,0.07
2014-7-25,75,62,52,58,54,52,98,77,53,30.21,30.09,12,1,12,0.00
2014-7-26,79,66,52,58,54,51,97,70,46,30.17,30.11,12,1,12,0.00
2014-7-27,83,68,53,60,56,51,95,66,41,30.19,30.07,10,1,10,0.00
2014-7-28,88,73,56,60,55,50,95,58,28,30.12,30.05,13,1,13,0.00
2014-7-29,85,72,58,59,55,52,93,60,34,30.14,30.04,10,1,12,0.00
2014-7-30,85,70,57,60,55,49,93,62,36,30.15,30.07,13,1,13,0.00
2014-7-31,87,71,57,60,54,48,85,56,34,30.12,30.01,13,2,13,0.00
2014-8-1,86,72,59,60,55,50,82,58,37,30.07,29.94,11,1,11,0.00
2014-8-2,84,71,60,64,60,55,95,70,45,30.00,29.94,8,1,8,0.02
2014-8-3,90,74,60,64,60,56,94,65,33,30.06,29.91,11,1,11,0.00
2014-8-4,90,74,60,62,58,53,95,60,32,29.99,29.89,12,1,12,0.00
2014-8-5,80,68,58,60,57,55,92,70,47,30.07,29.95,11,2,14,0.00
2014-8-6,79,67,59,61,58,53,95,75,50,30.15,30.05,13,1,13,0.00
2014-8-7,78,67,57,58,55,50,86,67,47,30.09,30.01,13,1,13,0.00
2014-8-8,77,66,55,56,52,48,86,62,40,30.12,30.05,12,1,12,0.00
2014-8-9,81,67,55,55,51,48,80,59,35,30.17,30.08,13,1,13,0.00
2014-8-10,86,71,54,60,56,50,93,62,37,30.13,29.98,13,1,13,0.00
2014-8-11,98,79,61,66,61,56,92,59,25,29.99,29.79,9,1,9,0.00
2014-8-12,76,72,70,67,65,63,82,77,68,29.83,29.80,6,0,6,0.00
2014-8-13,70,65,60,65,61,59,97,88,72,30.01,29.86,5,2,15,0.93
2014-8-14,69,64,60,63,61,58,96,91,77,30.03,29.98,4,0,7,0.01
2014-8-15,70,65,62,65,62,61,98,92,76,30.07,29.97,4,0,7,0.12
2014-8-16,77,68,61,64,62,59,96,81,60,30.12,30.06,10,1,10,0.00
2014-8-17,82,70,60,65,62,59,97,77,54,30.13,30.03,13,1,13,0.00
2014-8-18,86,71,58,66,62,57,97,76,49,30.04,29.82,12,1,12,0.00
2014-8-19,84,72,62,63,60,54,94,69,47,29.83,29.76,11,1,11,0.00
2014-8-20,71,64,57,56,53,51,82,69,55,30.00,29.83,17,3,17,0.00
2014-8-21,71,61,54,56,52,46,90,73,42,30.05,29.97,11,1,11,0.00
2014-8-22,76,63,51,58,55,50,97,76,53,30.10,29.99,12,1,12,0.00
2014-8-23,81,68,56,61,56,52,96,70,40,30.15,30.00,10,1,10,0.00
2014-8-24,79,66,57,60,57,54,93,74,45,30.00,29.90,11,1,11,0.00
2014-8-25,85,69,56,60,57,54,96,69,38,30.03,29.95,10,1,10,0.00
2014-8-26,88,73,58,62,57,53,92,61,33,30.05,29.95,11,1,11,0.00
2014-8-27,86,73,60,63,59,55,92,64,38,30.04,29.98,11,1,11,0.00
2014-8-28,74,67,59,61,59,56,92,74,64,30.11,30.01,10,2,14,0.00
2014-8-29,71,65,59,60,56,54,95,74,61,30.01,29.94,13,2,13,0.00
2014-8-30,62,60,57,59,56,55,96,87,78,29.99,29.91,8,1,8,0.24
2014-8-31,72,61,54,59,54,51,98,82,52,30.08,29.99,12,1,12,0.18
2014-9-1,74,63,52,58,54,50,96,75,52,30.10,29.98,14,1,14,0.00
2014-9-2,69,59,54,57,55,51,97,86,61,29.99,29.79,7,1,22,0.74
2014-9-3,70,59,54,56,53,49,97,83,51,30.11,29.89,14,2,17,0.22
2014-9-4,76,61,48,56,53,47,97,76,49,30.16,30.06,11,1,11,0.00
2014-9-5,82,66,51,59,54,50,98,70,35,30.16,30.03,12,1,12,0.00
2014-9-6,91,72,55,59,52,47,92,56,24,30.06,29.84,10,1,10,0.00
2014-9-7,86,70,56,57,51,45,82,54,25,29.89,29.79,6,1,8,0.00
2014-9-8,64,58,56,56,54,53,90,86,70,29.88,29.83,11,2,12,0.00
2014-9-9,69,60,54,57,55,52,96,84,63,30.14,29.94,2,1,8,0.25
2014-9-10,71,58,53,57,48,37,96,72,42,30.24,30.13,3,1,11,0.01
2014-9-11,75,62,51,47,36,30,85,41,21,30.32,30.14,7,1,12,0.00
2014-9-12,77,63,51,45,37,28,69,41,22,30.14,29.97,13,1,13,0.00
2014-9-13,84,66,51,47,42,37,80,46,21,30.00,29.85,6,1,10,0.00
2014-9-14,86,69,53,49,45,40,76,46,22,29.92,29.84,9,1,9,0.00
2014-9-15,90,65,56,54,47,43,65,54,25,29.88,29.78,2,0,7,0.00